Temp: 17.4°C   Baro: 1010.1mb
  Wind: 4.9mph   Dir: WNW (302°)
  Rain: 0.8mm (0.0mm/hr)
  Solar: 169W/m2  Hum: 92%
 
Bath Spa Weather Station Historical Data
Daily Summary for June 30, 2019 Units:  Both    English   Metric
Daily Weekly Monthly Yearly Custom
  High: Low: Average:
Temperature: 68.9 °F /  20.5 °C 58.5 °F /  14.7 °C 62.4 °F /  16.9 °C
Dew Point: 61.6 °F /  16.4 °C 53.8 °F /  12.1 °C 57.4 °F /  14.1 °C
Humidity: 93% 71% 84%
Wind Speed: 13.1mph /  21.1km/h - 6.5mph /  10.5km/h
Wind Gust: 24mph /  38.6km/h - -
Wind- - South
Pressure: 29.78 in /  1008.4 hPa 29.48 in /  998.2 hPa -
Precipitation: 0.40 in /  10.16 mm    
Historical Graphs
 
 
Tabular Data for June 30, 2019
Time Temperature Dew Point Pressure Wind Wind Speed Wind Gust Humidity Rainfall Rate (Hourly) solar
00:04 64 °F /  17.8 °C 54.5 °F /  12.5 °C 29.67in /  1004.6hPa SE 1.7mph /  2.7km/h 6mph /  9.7km/h 71% 0.00in /  0mm 0 W/m2
00:09 64 °F /  17.8 °C 54.6 °F /  12.6 °C 29.67in /  1004.6hPa SE 4.7mph /  7.6km/h 9mph /  14.5km/h 71.5% 0.00in /  0mm 0 W/m2
00:14 63.9 °F /  17.7 °C 54.7 °F /  12.6 °C 29.67in /  1004.6hPa ESE 4.5mph /  7.2km/h 10mph /  16.1km/h 72% 0.00in /  0mm 0 W/m2
00:19 63.9 °F /  17.7 °C 54.7 °F /  12.6 °C 29.67in /  1004.6hPa ESE 5.2mph /  8.4km/h 11mph /  17.7km/h 72% 0.00in /  0mm 0 W/m2
00:24 63.9 °F /  17.7 °C 54.7 °F /  12.6 °C 29.67in /  1004.6hPa ESE 4.1mph /  6.6km/h 11mph /  17.7km/h 72% 0.00in /  0mm 0 W/m2
00:29 63.7 °F /  17.6 °C 54.5 °F /  12.5 °C 29.67in /  1004.6hPa ESE 5.3mph /  8.5km/h 12mph /  19.3km/h 72% 0.00in /  0mm 0 W/m2
00:34 63.6 °F /  17.6 °C 54.4 °F /  12.4 °C 29.67in /  1004.6hPa ESE 3.7mph /  6km/h 11mph /  17.7km/h 72% 0.00in /  0mm 0 W/m2
00:39 63.5 °F /  17.5 °C 54.3 °F /  12.4 °C 29.67in /  1004.6hPa ESE 4.2mph /  6.8km/h 9mph /  14.5km/h 72% 0.00in /  0mm 0 W/m2
00:44 63.4 °F /  17.4 °C 54.4 °F /  12.4 °C 29.67in /  1004.6hPa ESE 4.6mph /  7.4km/h 10mph /  16.1km/h 72.5% 0.00in /  0mm 0 W/m2
00:49 63.3 °F /  17.4 °C 54.5 °F /  12.5 °C 29.66in /  1004.3hPa ESE 5mph /  8km/h 10mph /  16.1km/h 73% 0.00in /  0mm 0 W/m2
00:54 63.2 °F /  17.3 °C 54.3 °F /  12.4 °C 29.66in /  1004.3hPa ESE 4.2mph /  6.8km/h 11mph /  17.7km/h 73% 0.00in /  0mm 0 W/m2
00:59 63.1 °F /  17.3 °C 54.3 °F /  12.4 °C 29.66in /  1004.3hPa ESE 4mph /  6.4km/h 11mph /  17.7km/h 73% 0.00in /  0mm 0 W/m2
01:04 63 °F /  17.2 °C 54.2 °F /  12.3 °C 29.66in /  1004.3hPa ESE 4.3mph /  6.9km/h 11mph /  17.7km/h 73% 0.00in /  0mm 0 W/m2
01:09 63 °F /  17.2 °C 54.1 °F /  12.3 °C 29.66in /  1004.3hPa ESE 4.1mph /  6.6km/h 8mph /  12.9km/h 73% 0.00in /  0mm 0 W/m2
01:14 62.9 °F /  17.2 °C 54.2 °F /  12.3 °C 29.66in /  1004.3hPa ESE 5.5mph /  8.9km/h 12mph /  19.3km/h 73.4% 0.00in /  0mm 0 W/m2
01:19 62.7 °F /  17.1 °C 54.2 °F /  12.3 °C 29.66in /  1004.3hPa ESE 3.8mph /  6.1km/h 11mph /  17.7km/h 74% 0.00in /  0mm 0 W/m2
01:24 62.6 °F /  17 °C 54.1 °F /  12.3 °C 29.66in /  1004.3hPa ESE 5.4mph /  8.7km/h 11mph /  17.7km/h 74% 0.00in /  0mm 0 W/m2
01:29 62.6 °F /  17 °C 54.1 °F /  12.3 °C 29.65in /  1003.9hPa ESE 3.2mph /  5.1km/h 11mph /  17.7km/h 74% 0.00in /  0mm 0 W/m2
01:34 62.6 °F /  17 °C 54.1 °F /  12.3 °C 29.65in /  1003.9hPa ESE 7mph /  11.3km/h 12mph /  19.3km/h 74% 0.00in /  0mm 0 W/m2
01:39 62.6 °F /  17 °C 54.1 °F /  12.3 °C 29.65in /  1003.9hPa ESE 5.1mph /  8.2km/h 12mph /  19.3km/h 74% 0.00in /  0mm 0 W/m2
01:44 62.6 °F /  17 °C 54.1 °F /  12.3 °C 29.65in /  1003.9hPa ESE 6.8mph /  10.9km/h 14mph /  22.5km/h 74% 0.00in /  0mm 0 W/m2
01:49 62.5 °F /  16.9 °C 54.1 °F /  12.3 °C 29.65in /  1003.9hPa SE 4.1mph /  6.6km/h 12mph /  19.3km/h 74% 0.00in /  0mm 0 W/m2
01:54 62.5 °F /  16.9 °C 54 °F /  12.2 °C 29.65in /  1003.9hPa ESE 5.1mph /  8.2km/h 11mph /  17.7km/h 74% 0.00in /  0mm 0 W/m2
01:59 62.6 °F /  17 °C 54.1 °F /  12.3 °C 29.65in /  1003.9hPa SE 3.5mph /  5.6km/h 11mph /  17.7km/h 74% 0.00in /  0mm 0 W/m2
02:04 62.4 °F /  16.9 °C 54 °F /  12.2 °C 29.65in /  1003.9hPa ESE 5.6mph /  9km/h 10mph /  16.1km/h 74% 0.00in /  0mm 0 W/m2
02:09 62.4 °F /  16.9 °C 54 °F /  12.2 °C 29.65in /  1003.9hPa ESE 3.7mph /  6km/h 10mph /  16.1km/h 74% 0.00in /  0mm 0 W/m2
02:14 62.3 °F /  16.8 °C 53.9 °F /  12.2 °C 29.65in /  1003.9hPa ESE 4.5mph /  7.2km/h 10mph /  16.1km/h 74% 0.00in /  0mm 0 W/m2
02:19 62.2 °F /  16.8 °C 54 °F /  12.2 °C 29.65in /  1003.9hPa ESE 4.3mph /  6.9km/h 8mph /  12.9km/h 74.5% 0.00in /  0mm 0 W/m2
02:24 62.1 °F /  16.7 °C 54 °F /  12.2 °C 29.65in /  1003.9hPa ESE 5.1mph /  8.2km/h 11mph /  17.7km/h 75% 0.00in /  0mm 0 W/m2
02:29 62.1 °F /  16.7 °C 54 °F /  12.2 °C 29.64in /  1003.6hPa ESE 4.4mph /  7.1km/h 11mph /  17.7km/h 75% 0.00in /  0mm 0 W/m2
02:34 61.9 °F /  16.6 °C 53.8 °F /  12.1 °C 29.64in /  1003.6hPa ESE 3.5mph /  5.6km/h 9mph /  14.5km/h 75% 0.00in /  0mm 0 W/m2
02:39 61.8 °F /  16.6 °C 53.8 °F /  12.1 °C 29.64in /  1003.6hPa ESE 3.7mph /  6km/h 9mph /  14.5km/h 75% 0.00in /  0mm 0 W/m2
02:44 61.8 °F /  16.6 °C 54 °F /  12.2 °C 29.64in /  1003.6hPa ESE 4mph /  6.4km/h 11mph /  17.7km/h 75.6% 0.00in /  0mm 0 W/m2
02:49 61.9 °F /  16.6 °C 54.3 °F /  12.4 °C 29.63in /  1003.3hPa ESE 3.9mph /  6.3km/h 10mph /  16.1km/h 76% 0.00in /  0mm 0 W/m2
02:54 61.9 °F /  16.6 °C 54.3 °F /  12.4 °C 29.63in /  1003.3hPa ESE 4.1mph /  6.6km/h 10mph /  16.1km/h 76% 0.00in /  0mm 0 W/m2
02:59 61.8 °F /  16.6 °C 54.2 °F /  12.3 °C 29.63in /  1003.3hPa ESE 4.4mph /  7.1km/h 12mph /  19.3km/h 76% 0.00in /  0mm 0 W/m2
03:04 61.7 °F /  16.5 °C 54.1 °F /  12.3 °C 29.63in /  1003.3hPa ESE 5.5mph /  8.9km/h 10mph /  16.1km/h 76% 0.00in /  0mm 0 W/m2
03:09 61.6 °F /  16.4 °C 54.2 °F /  12.3 °C 29.63in /  1003.3hPa ESE 5.1mph /  8.2km/h 11mph /  17.7km/h 76.4% 0.00in /  0mm 0 W/m2
03:14 61.6 °F /  16.4 °C 54.4 °F /  12.4 °C 29.62in /  1002.9hPa ESE 3.5mph /  5.6km/h 11mph /  17.7km/h 77% 0.00in /  0mm 0 W/m2
03:19 61.6 °F /  16.4 °C 54.4 °F /  12.4 °C 29.62in /  1002.9hPa ESE 4.7mph /  7.6km/h 9mph /  14.5km/h 77% 0.00in /  0mm 0 W/m2
03:24 61.7 °F /  16.5 °C 54.5 °F /  12.5 °C 29.62in /  1002.9hPa ESE 5.1mph /  8.2km/h 10mph /  16.1km/h 77% 0.00in /  0mm 0 W/m2
03:29 61.8 °F /  16.6 °C 54.6 °F /  12.6 °C 29.62in /  1002.9hPa ESE 5.2mph /  8.4km/h 13mph /  20.9km/h 77% 0.00in /  0mm 0 W/m2
03:34 62 °F /  16.7 °C 54.7 °F /  12.6 °C 29.61in /  1002.6hPa ESE 6mph /  9.7km/h 13mph /  20.9km/h 77% 0.00in /  0mm 0 W/m2
03:39 62.1 °F /  16.7 °C 54.7 °F /  12.6 °C 29.61in /  1002.6hPa East 4.7mph /  7.6km/h 12mph /  19.3km/h 77% 0.00in /  0mm 0 W/m2
03:44 62.1 °F /  16.7 °C 54.7 °F /  12.6 °C 29.61in /  1002.6hPa ESE 7mph /  11.3km/h 13mph /  20.9km/h 77% 0.00in /  0mm 0 W/m2
03:49 62.1 °F /  16.7 °C 54.7 °F /  12.6 °C 29.61in /  1002.6hPa ESE 4.3mph /  6.9km/h 13mph /  20.9km/h 77% 0.00in /  0mm 0 W/m2
03:54 62.1 °F /  16.7 °C 54.7 °F /  12.6 °C 29.61in /  1002.6hPa ESE 5.3mph /  8.5km/h 12mph /  19.3km/h 77% 0.00in /  0mm 0 W/m2
03:59 62.1 °F /  16.7 °C 54.7 °F /  12.6 °C 29.61in /  1002.6hPa ESE 6.2mph /  10km/h 15mph /  24.1km/h 77% 0.00in /  0mm 0 W/m2
04:04 62.1 °F /  16.7 °C 54.7 °F /  12.6 °C 29.61in /  1002.6hPa ESE 6.8mph /  10.9km/h 13mph /  20.9km/h 77% 0.00in /  0mm 0 W/m2
04:09 62.1 °F /  16.7 °C 54.8 °F /  12.7 °C 29.60in /  1002.3hPa ESE 6.3mph /  10.1km/h 13mph /  20.9km/h 77% 0.00in /  0mm 0 W/m2
04:14 62.2 °F /  16.8 °C 54.9 °F /  12.7 °C 29.60in /  1002.3hPa ESE 5.7mph /  9.2km/h 13mph /  20.9km/h 77% 0.00in /  0mm 0 W/m2
04:19 62.2 °F /  16.8 °C 54.9 °F /  12.7 °C 29.60in /  1002.3hPa East 7.8mph /  12.6km/h 14mph /  22.5km/h 77% 0.00in /  0mm 0 W/m2
04:24 62.1 °F /  16.7 °C 54.7 °F /  12.6 °C 29.60in /  1002.3hPa ESE 5.1mph /  8.2km/h 14mph /  22.5km/h 77% 0.00in /  0mm 0 W/m2
04:29 62.1 °F /  16.7 °C 54.7 °F /  12.6 °C 29.60in /  1002.3hPa ESE 4.4mph /  7.1km/h 10mph /  16.1km/h 77% 0.00in /  0mm 0 W/m2
04:34 62.1 °F /  16.7 °C 54.7 °F /  12.6 °C 29.60in /  1002.3hPa ESE 5.4mph /  8.7km/h 12mph /  19.3km/h 77% 0.00in /  0mm 0 W/m2
04:39 62 °F /  16.7 °C 54.8 °F /  12.7 °C 29.60in /  1002.3hPa ESE 5.1mph /  8.2km/h 12mph /  19.3km/h 77.5% 0.00in /  0mm 0 W/m2
04:44 62.1 °F /  16.7 °C 55 °F /  12.8 °C 29.59in /  1001.9hPa ESE 3.6mph /  5.8km/h 9mph /  14.5km/h 78% 0.00in /  0mm 0 W/m2
04:49 62.1 °F /  16.7 °C 55 °F /  12.8 °C 29.59in /  1001.9hPa ESE 5.2mph /  8.4km/h 13mph /  20.9km/h 78% 0.00in /  0mm 0 W/m2
04:54 62.1 °F /  16.7 °C 55 °F /  12.8 °C 29.59in /  1001.9hPa ESE 6.8mph /  10.9km/h 15mph /  24.1km/h 78% 0.00in /  0mm 0 W/m2
04:59 62.1 °F /  16.7 °C 55 °F /  12.8 °C 29.59in /  1001.9hPa ESE 3.9mph /  6.3km/h 12mph /  19.3km/h 78% 0.00in /  0mm 0 W/m2
05:04 61.9 °F /  16.6 °C 55.2 °F /  12.9 °C 29.59in /  1001.9hPa ESE 3.3mph /  5.3km/h 11mph /  17.7km/h 78.9% 0.00in /  0mm 0 W/m2
05:09 61.8 °F /  16.6 °C 55.1 °F /  12.8 °C 29.59in /  1001.9hPa ESE 4.8mph /  7.7km/h 11mph /  17.7km/h 79% 0.00in /  0mm 0 W/m2
05:14 61.8 °F /  16.6 °C 55.1 °F /  12.8 °C 29.59in /  1001.9hPa ESE 4.6mph /  7.4km/h 10mph /  16.1km/h 79% 0.00in /  0mm 0 W/m2
05:19 61.9 °F /  16.6 °C 55.2 °F /  12.9 °C 29.59in /  1001.9hPa ESE 4mph /  6.4km/h 11mph /  17.7km/h 79% 0.00in /  0mm 0 W/m2
05:24 61.9 °F /  16.6 °C 55.2 °F /  12.9 °C 29.58in /  1001.6hPa ESE 6.2mph /  10km/h 17mph /  27.4km/h 79% 0.00in /  0mm 0 W/m2
05:29 61.9 °F /  16.6 °C 55.2 °F /  12.9 °C 29.58in /  1001.6hPa ESE 4.3mph /  6.9km/h 12mph /  19.3km/h 79% 0.00in /  0mm 0 W/m2
05:34 61.8 °F /  16.6 °C 55.1 °F /  12.8 °C 29.58in /  1001.6hPa ESE 4.5mph /  7.2km/h 14mph /  22.5km/h 79.1% 0.00in /  0mm 5 W/m2
05:39 61.8 °F /  16.6 °C 55.5 °F /  13.1 °C 29.58in /  1001.6hPa ESE 8.1mph /  13km/h 18mph /  29km/h 80% 0.01in /  0.25mm 5 W/m2
05:44 61.2 °F /  16.2 °C 55.5 °F /  13.1 °C 29.58in /  1001.6hPa SE 6.5mph /  10.5km/h 18mph /  29km/h 81.6% 0.02in /  0.51mm 5 W/m2
05:49 60.6 °F /  15.9 °C 55.6 °F /  13.1 °C 29.59in /  1001.9hPa SE 4.2mph /  6.8km/h 10mph /  16.1km/h 83.3% 0.02in /  0.51mm 9 W/m2
05:54 60.4 °F /  15.8 °C 55.8 °F /  13.2 °C 29.58in /  1001.6hPa ESE 3.2mph /  5.1km/h 9mph /  14.5km/h 84.8% 0.02in /  0.51mm 14 W/m2
05:59 60.3 °F /  15.7 °C 55.9 °F /  13.3 °C 29.58in /  1001.6hPa ESE 3.1mph /  5km/h 8mph /  12.9km/h 85.3% 0.02in /  0.51mm 25 W/m2
06:04 60.2 °F /  15.7 °C 56 °F /  13.3 °C 29.58in /  1001.6hPa ESE 3.7mph /  6km/h 9mph /  14.5km/h 86% 0.02in /  0.51mm 25 W/m2
06:09 60.2 °F /  15.7 °C 56 °F /  13.3 °C 29.58in /  1001.6hPa ESE 2.6mph /  4.2km/h 8mph /  12.9km/h 86.3% 0.02in /  0.51mm 30 W/m2
06:14 60.1 °F /  15.6 °C 56.1 °F /  13.4 °C 29.57in /  1001.2hPa ESE 4.3mph /  6.9km/h 11mph /  17.7km/h 87% 0.02in /  0.51mm 35 W/m2
06:19 60.3 °F /  15.7 °C 56.3 °F /  13.5 °C 29.57in /  1001.2hPa ESE 3.9mph /  6.3km/h 10mph /  16.1km/h 87% 0.02in /  0.51mm 28 W/m2
06:24 60.3 °F /  15.7 °C 56.3 °F /  13.5 °C 29.57in /  1001.2hPa ESE 4.7mph /  7.6km/h 10mph /  16.1km/h 87% 0.03in /  0.76mm 23 W/m2
06:29 60.2 °F /  15.7 °C 56.3 °F /  13.5 °C 29.57in /  1001.2hPa ESE 7.4mph /  11.9km/h 13mph /  20.9km/h 87.3% 0.04in /  1.02mm 23 W/m2
06:34 59.9 °F /  15.5 °C 56.3 °F /  13.5 °C 29.57in /  1001.2hPa SE 5mph /  8km/h 12mph /  19.3km/h 88% 0.05in /  1.27mm 19 W/m2
06:39 59.8 °F /  15.4 °C 56.2 °F /  13.4 °C 29.57in /  1001.2hPa ESE 6.5mph /  10.5km/h 13mph /  20.9km/h 88% 0.05in /  1.27mm 35 W/m2
06:44 59.7 °F /  15.4 °C 56.3 °F /  13.5 °C 29.57in /  1001.2hPa ESE 4.6mph /  7.4km/h 10mph /  16.1km/h 88.4% 0.04in /  1.02mm 32 W/m2
06:49 59.7 °F /  15.4 °C 56.5 °F /  13.6 °C 29.57in /  1001.2hPa ESE 4.7mph /  7.6km/h 13mph /  20.9km/h 89% 0.04in /  1.02mm 25 W/m2
06:54 59.7 °F /  15.4 °C 56.5 °F /  13.6 °C 29.57in /  1001.2hPa East 5.2mph /  8.4km/h 12mph /  19.3km/h 89% 0.04in /  1.02mm 21 W/m2
06:59 59.7 °F /  15.4 °C 56.5 °F /  13.6 °C 29.57in /  1001.2hPa ESE 6.3mph /  10.1km/h 17mph /  27.4km/h 89% 0.05in /  1.27mm 18 W/m2
07:04 59.6 °F /  15.3 °C 56.7 °F /  13.7 °C 29.57in /  1001.2hPa ESE 6.1mph /  9.8km/h 17mph /  27.4km/h 89.8% 0.06in /  1.52mm 23 W/m2
07:09 59.5 °F /  15.3 °C 56.7 °F /  13.7 °C 29.56in /  1000.9hPa ESE 8.3mph /  13.4km/h 16mph /  25.7km/h 90% 0.07in /  1.78mm 25 W/m2
07:14 59.5 °F /  15.3 °C 56.7 °F /  13.7 °C 29.56in /  1000.9hPa ESE 4.2mph /  6.8km/h 16mph /  25.7km/h 90% 0.09in /  2.29mm 25 W/m2
07:19 59.4 °F /  15.2 °C 56.6 °F /  13.7 °C 29.56in /  1000.9hPa ESE 6.6mph /  10.6km/h 14mph /  22.5km/h 90% 0.11in /  2.79mm 26 W/m2
07:24 59.4 °F /  15.2 °C 56.6 °F /  13.7 °C 29.56in /  1000.9hPa East 6.7mph /  10.8km/h 14mph /  22.5km/h 90.7% 0.11in /  2.79mm 26 W/m2
07:29 59.4 °F /  15.2 °C 56.7 °F /  13.7 °C 29.55in /  1000.6hPa ESE 5.5mph /  8.9km/h 14mph /  22.5km/h 91% 0.11in /  2.79mm 28 W/m2
07:34 59.4 °F /  15.2 °C 56.7 °F /  13.7 °C 29.55in /  1000.6hPa ESE 5.2mph /  8.4km/h 13mph /  20.9km/h 91% 0.12in /  3.05mm 25 W/m2
07:39 59.4 °F /  15.2 °C 56.7 °F /  13.7 °C 29.55in /  1000.6hPa ESE 9mph /  14.5km/h 15mph /  24.1km/h 91% 0.13in /  3.3mm 23 W/m2
07:44 59.2 °F /  15.1 °C 56.5 °F /  13.6 °C 29.55in /  1000.6hPa SE 7.6mph /  12.2km/h 17mph /  27.4km/h 91% 0.14in /  3.56mm 23 W/m2
07:49 59.2 °F /  15.1 °C 56.5 °F /  13.6 °C 29.56in /  1000.9hPa ESE 6.3mph /  10.1km/h 14mph /  22.5km/h 91% 0.14in /  3.56mm 23 W/m2
07:54 59.2 °F /  15.1 °C 56.8 °F /  13.8 °C 29.56in /  1000.9hPa SE 5.1mph /  8.2km/h 15mph /  24.1km/h 91.9% 0.14in /  3.56mm 32 W/m2
07:59 59.2 °F /  15.1 °C 56.8 °F /  13.8 °C 29.56in /  1000.9hPa SE 6.3mph /  10.1km/h 11mph /  17.7km/h 92% 0.13in /  3.3mm 33 W/m2
08:04 59.2 °F /  15.1 °C 56.8 °F /  13.8 °C 29.56in /  1000.9hPa SE 7.2mph /  11.6km/h 14mph /  22.5km/h 92% 0.12in /  3.05mm 40 W/m2
08:09 59.3 °F /  15.2 °C 56.9 °F /  13.8 °C 29.55in /  1000.6hPa ESE 3.8mph /  6.1km/h 12mph /  19.3km/h 92% 0.11in /  2.79mm 40 W/m2
08:14 59.4 °F /  15.2 °C 57 °F /  13.9 °C 29.56in /  1000.9hPa ESE 7.2mph /  11.6km/h 13mph /  20.9km/h 92% 0.09in /  2.29mm 69 W/m2
08:19 59.4 °F /  15.2 °C 57 °F /  13.9 °C 29.55in /  1000.6hPa SE 5.2mph /  8.4km/h 12mph /  19.3km/h 92% 0.07in /  1.78mm 53 W/m2
08:24 59.4 °F /  15.2 °C 57 °F /  13.9 °C 29.55in /  1000.6hPa ESE 7.4mph /  11.9km/h 15mph /  24.1km/h 92% 0.05in /  1.27mm 54 W/m2
08:29 59.4 °F /  15.2 °C 57 °F /  13.9 °C 29.55in /  1000.6hPa ESE 6.1mph /  9.8km/h 15mph /  24.1km/h 92% 0.05in /  1.27mm 42 W/m2
08:34 59.4 °F /  15.2 °C 57 °F /  13.9 °C 29.55in /  1000.6hPa ESE 5.5mph /  8.9km/h 14mph /  22.5km/h 92% 0.04in /  1.02mm 53 W/m2
08:39 59.4 °F /  15.2 °C 57 °F /  13.9 °C 29.54in /  1000.2hPa ESE 4.6mph /  7.4km/h 14mph /  22.5km/h 92% 0.05in /  1.27mm 42 W/m2
08:44 59.4 °F /  15.2 °C 57.3 °F /  14.1 °C 29.54in /  1000.2hPa ESE 6.2mph /  10km/h 16mph /  25.7km/h 92.7% 0.05in /  1.27mm 49 W/m2
08:49 59.4 °F /  15.2 °C 57.4 °F /  14.1 °C 29.54in /  1000.2hPa ESE 6.1mph /  9.8km/h 16mph /  25.7km/h 93% 0.05in /  1.27mm 107 W/m2
08:54 59.4 °F /  15.2 °C 57.4 °F /  14.1 °C 29.54in /  1000.2hPa ESE 5.1mph /  8.2km/h 15mph /  24.1km/h 93% 0.05in /  1.27mm 81 W/m2
08:59 59.4 °F /  15.2 °C 57.4 °F /  14.1 °C 29.54in /  1000.2hPa ESE 6.3mph /  10.1km/h 19mph /  30.6km/h 93% 0.06in /  1.52mm 69 W/m2
09:04 59.4 °F /  15.2 °C 57.4 °F /  14.1 °C 29.54in /  1000.2hPa ESE 7mph /  11.3km/h 17mph /  27.4km/h 93% 0.06in /  1.52mm 128 W/m2
09:09 59.4 °F /  15.2 °C 57.4 °F /  14.1 °C 29.54in /  1000.2hPa ESE 8.6mph /  13.8km/h 20mph /  32.2km/h 93% 0.06in /  1.52mm 156 W/m2
09:14 59.5 °F /  15.3 °C 57.6 °F /  14.2 °C 29.54in /  1000.2hPa ESE 6.2mph /  10km/h 14mph /  22.5km/h 93% 0.06in /  1.52mm 153 W/m2
09:19 59.7 °F /  15.4 °C 57.7 °F /  14.3 °C 29.54in /  1000.2hPa SE 5.3mph /  8.5km/h 14mph /  22.5km/h 93% 0.06in /  1.52mm 216 W/m2
09:24 59.8 °F /  15.4 °C 57.8 °F /  14.3 °C 29.54in /  1000.2hPa ESE 5.3mph /  8.5km/h 14mph /  22.5km/h 93% 0.06in /  1.52mm 288 W/m2
09:29 60.1 °F /  15.6 °C 58.1 °F /  14.5 °C 29.53in /  999.9hPa ESE 7.5mph /  12.1km/h 12mph /  19.3km/h 93% 0.06in /  1.52mm 267 W/m2
09:34 60.4 °F /  15.8 °C 58.4 °F /  14.7 °C 29.53in /  999.9hPa ESE 4.7mph /  7.6km/h 11mph /  17.7km/h 93% 0.06in /  1.52mm 297 W/m2
09:39 60.4 °F /  15.8 °C 58.5 °F /  14.7 °C 29.53in /  999.9hPa ESE 3.9mph /  6.3km/h 11mph /  17.7km/h 93% 0.02in /  0.51mm 255 W/m2
09:44 60.8 °F /  16 °C 58.8 °F /  14.9 °C 29.53in /  999.9hPa ESE 8.1mph /  13km/h 13mph /  20.9km/h 93% 0.02in /  0.51mm 515 W/m2
09:49 61 °F /  16.1 °C 59 °F /  15 °C 29.52in /  999.5hPa ESE 5mph /  8km/h 13mph /  20.9km/h 93% 0.02in /  0.51mm 515 W/m2
09:54 61 °F /  16.1 °C 59 °F /  15 °C 29.52in /  999.5hPa SE 2.9mph /  4.7km/h 9mph /  14.5km/h 93% 0.01in /  0.25mm 90 W/m2
09:59 60.9 °F /  16.1 °C 58.9 °F /  14.9 °C 29.52in /  999.5hPa East 4.6mph /  7.4km/h 12mph /  19.3km/h 93% 0.01in /  0.25mm 65 W/m2
10:04 60.8 °F /  16 °C 58.8 °F /  14.9 °C 29.52in /  999.5hPa ESE 5mph /  8km/h 10mph /  16.1km/h 93% 0.01in /  0.25mm 79 W/m2
10:09 60.6 °F /  15.9 °C 58.6 °F /  14.8 °C 29.52in /  999.5hPa ESE 4.3mph /  6.9km/h 10mph /  16.1km/h 92.8% 0.01in /  0.25mm 72 W/m2
10:14 60.6 °F /  15.9 °C 58.3 °F /  14.6 °C 29.51in /  999.2hPa East 5mph /  8km/h 11mph /  17.7km/h 92% 0.02in /  0.51mm 79 W/m2
10:19 60.6 °F /  15.9 °C 58.3 °F /  14.6 °C 29.51in /  999.2hPa ESE 4.1mph /  6.6km/h 16mph /  25.7km/h 92% 0.04in /  1.02mm 93 W/m2
10:24 60.6 °F /  15.9 °C 58.3 °F /  14.6 °C 29.51in /  999.2hPa ESE 5.4mph /  8.7km/h 16mph /  25.7km/h 92% 0.04in /  1.02mm 165 W/m2
10:29 60.6 °F /  15.9 °C 58.3 °F /  14.6 °C 29.51in /  999.2hPa ESE 4.6mph /  7.4km/h 14mph /  22.5km/h 92% 0.04in /  1.02mm 192 W/m2
10:34 60.8 °F /  16 °C 58.6 °F /  14.8 °C 29.51in /  999.2hPa East 7.5mph /  12.1km/h 15mph /  24.1km/h 92.2% 0.04in /  1.02mm 450 W/m2
10:39 61.3 °F /  16.3 °C 59.4 °F /  15.2 °C 29.50in /  998.9hPa East 6.8mph /  10.9km/h 15mph /  24.1km/h 93% 0.04in /  1.02mm 969 W/m2
10:44 62 °F /  16.7 °C 60 °F /  15.6 °C 29.50in /  998.9hPa ESE 5mph /  8km/h 11mph /  17.7km/h 93% 0.04in /  1.02mm 969 W/m2
10:49 62.2 °F /  16.8 °C 60.1 °F /  15.6 °C 29.50in /  998.9hPa ESE 7.7mph /  12.4km/h 14mph /  22.5km/h 92.8% 0.04in /  1.02mm 378 W/m2
10:54 62.1 °F /  16.7 °C 59.7 °F /  15.4 °C 29.50in /  998.9hPa ESE 4.4mph /  7.1km/h 10mph /  16.1km/h 92% 0.04in /  1.02mm 374 W/m2
10:59 62.2 °F /  16.8 °C 59.8 °F /  15.4 °C 29.49in /  998.5hPa ESE 5.1mph /  8.2km/h 13mph /  20.9km/h 92% 0.04in /  1.02mm 374 W/m2
11:04 62.6 °F /  17 °C 60.3 °F /  15.7 °C 29.49in /  998.5hPa ESE 4.4mph /  7.1km/h 12mph /  19.3km/h 92% 0.03in /  0.76mm 431 W/m2
11:09 62.9 °F /  17.2 °C 60.5 °F /  15.8 °C 29.49in /  998.5hPa East 5.8mph /  9.3km/h 14mph /  22.5km/h 92% 0.03in /  0.76mm 438 W/m2
11:14 63.2 °F /  17.3 °C 60.7 °F /  15.9 °C 29.49in /  998.5hPa East 5.4mph /  8.7km/h 11mph /  17.7km/h 91.4% 0.03in /  0.76mm 548 W/m2
11:19 64 °F /  17.8 °C 61.2 °F /  16.2 °C 29.49in /  998.5hPa ESE 3.1mph /  5km/h 11mph /  17.7km/h 90.6% 0.02in /  0.51mm 828 W/m2
11:24 64.5 °F /  18.1 °C 61.3 °F /  16.3 °C 29.49in /  998.5hPa ESE 4.5mph /  7.2km/h 13mph /  20.9km/h 89.4% 0.01in /  0.25mm 373 W/m2
11:29 64.9 °F /  18.3 °C 61.6 °F /  16.4 °C 29.49in /  998.5hPa East 3.2mph /  5.1km/h 10mph /  16.1km/h 88.7% 0.00in /  0mm 406 W/m2
11:34 64.6 °F /  18.1 °C 60.7 °F /  15.9 °C 29.49in /  998.5hPa ESE 2.7mph /  4.3km/h 10mph /  16.1km/h 87.2% 0.00in /  0mm 199 W/m2
11:39 64.3 °F /  17.9 °C 60.3 °F /  15.7 °C 29.49in /  998.5hPa East 2.9mph /  4.7km/h 8mph /  12.9km/h 87% 0.00in /  0mm 250 W/m2
11:44 64.1 °F /  17.8 °C 60.2 °F /  15.7 °C 29.49in /  998.5hPa East 2.2mph /  3.5km/h 7mph /  11.3km/h 87% 0.00in /  0mm 301 W/m2
11:49 64.4 °F /  18 °C 60.4 °F /  15.8 °C 29.49in /  998.5hPa ENE 2.9mph /  4.7km/h 8mph /  12.9km/h 87% 0.00in /  0mm 304 W/m2
11:54 64.5 °F /  18.1 °C 60.5 °F /  15.8 °C 29.49in /  998.5hPa ENE 4.5mph /  7.2km/h 10mph /  16.1km/h 87% 0.00in /  0mm 496 W/m2
11:59 64.5 °F /  18.1 °C 60.4 °F /  15.8 °C 29.49in /  998.5hPa ENE 4.3mph /  6.9km/h 13mph /  20.9km/h 86.5% 0.00in /  0mm 496 W/m2
12:04 64.4 °F /  18 °C 60.1 °F /  15.6 °C 29.49in /  998.5hPa ENE 3mph /  4.8km/h 8mph /  12.9km/h 86% 0.00in /  0mm 401 W/m2
12:09 64.7 °F /  18.2 °C 60.3 °F /  15.7 °C 29.49in /  998.5hPa NNE 2.3mph /  3.7km/h 7mph /  11.3km/h 86% 0.00in /  0mm 339 W/m2
12:14 64.5 °F /  18.1 °C 60.1 °F /  15.6 °C 29.49in /  998.5hPa NE 2.6mph /  4.2km/h 7mph /  11.3km/h 85.7% 0.00in /  0mm 227 W/m2
12:19 64.3 °F /  17.9 °C 59.6 °F /  15.3 °C 29.49in /  998.5hPa NE 2.6mph /  4.2km/h 7mph /  11.3km/h 85.1% 0.00in /  0mm 204 W/m2
12:24 64 °F /  17.8 °C 59.7 °F /  15.4 °C 29.49in /  998.5hPa North 3.7mph /  6km/h 9mph /  14.5km/h 86% 0.00in /  0mm 346 W/m2
12:29 63.9 °F /  17.7 °C 59.5 °F /  15.3 °C 29.49in /  998.5hPa North 3.9mph /  6.3km/h 7mph /  11.3km/h 86% 0.00in /  0mm 698 W/m2
12:34 64 °F /  17.8 °C 59.6 °F /  15.3 °C 29.49in /  998.5hPa North 2.5mph /  4km/h 8mph /  12.9km/h 86% 0.00in /  0mm 742 W/m2
12:39 64.8 °F /  18.2 °C 60.3 °F /  15.7 °C 29.49in /  998.5hPa NNE 3.4mph /  5.5km/h 9mph /  14.5km/h 85.6% 0.00in /  0mm 742 W/m2
12:44 65.8 °F /  18.8 °C 61 °F /  16.1 °C 29.48in /  998.2hPa North 4mph /  6.4km/h 9mph /  14.5km/h 84.6% 0.00in /  0mm 513 W/m2
12:49 65.5 °F /  18.6 °C 60.2 °F /  15.7 °C 29.49in /  998.5hPa North 6.4mph /  10.3km/h 10mph /  16.1km/h 83% 0.00in /  0mm 408 W/m2
12:54 65 °F /  18.3 °C 59.8 °F /  15.4 °C 29.49in /  998.5hPa North 5.3mph /  8.5km/h 11mph /  17.7km/h 83.4% 0.00in /  0mm 594 W/m2
12:59 65.1 °F /  18.4 °C 59.9 °F /  15.5 °C 29.49in /  998.5hPa North 6.9mph /  11.1km/h 11mph /  17.7km/h 83% 0.00in /  0mm 1088 W/m2
13:04 65.7 °F /  18.7 °C 60.5 °F /  15.8 °C 29.48in /  998.2hPa NNE 6.2mph /  10km/h 11mph /  17.7km/h 83% 0.00in /  0mm 1016 W/m2
13:09 67 °F /  19.4 °C 61.5 °F /  16.4 °C 29.48in /  998.2hPa North 3.1mph /  5km/h 11mph /  17.7km/h 82.8% 0.00in /  0mm 926 W/m2
13:14 67.7 °F /  19.8 °C 61.5 °F /  16.4 °C 29.48in /  998.2hPa North 4.2mph /  6.8km/h 11mph /  17.7km/h 80.3% 0.00in /  0mm 868 W/m2
13:19 67.4 °F /  19.7 °C 60.7 °F /  15.9 °C 29.49in /  998.5hPa NNW 5mph /  8km/h 11mph /  17.7km/h 78.9% 0.00in /  0mm 849 W/m2
13:24 67.4 °F /  19.7 °C 60.6 °F /  15.9 °C 29.49in /  998.5hPa North 5.4mph /  8.7km/h 11mph /  17.7km/h 78.9% 0.00in /  0mm 962 W/m2
13:29 67.4 °F /  19.7 °C 60.4 °F /  15.8 °C 29.49in /  998.5hPa NNW 5.2mph /  8.4km/h 9mph /  14.5km/h 78.1% 0.00in /  0mm 962 W/m2
13:34 67.1 °F /  19.5 °C 60.2 °F /  15.7 °C 29.49in /  998.5hPa NNW 5.7mph /  9.2km/h 10mph /  16.1km/h 78.5% 0.00in /  0mm 353 W/m2
13:39 67.2 °F /  19.6 °C 60.1 °F /  15.6 °C 29.49in /  998.5hPa NW 6.4mph /  10.3km/h 12mph /  19.3km/h 77.9% 0.00in /  0mm 970 W/m2
13:44 66.9 °F /  19.4 °C 59.6 °F /  15.3 °C 29.49in /  998.5hPa NW 4.6mph /  7.4km/h 12mph /  19.3km/h 77.4% 0.00in /  0mm 295 W/m2
13:49 66.6 °F /  19.2 °C 59.6 °F /  15.3 °C 29.49in /  998.5hPa NW 5.7mph /  9.2km/h 10mph /  16.1km/h 78% 0.00in /  0mm 301 W/m2
13:54 66.7 °F /  19.3 °C 60.1 °F /  15.6 °C 29.50in /  998.9hPa NW 5.4mph /  8.7km/h 11mph /  17.7km/h 79% 0.00in /  0mm 301 W/m2
13:59 66.9 °F /  19.4 °C 60.2 °F /  15.7 °C 29.50in /  998.9hPa NW 7.1mph /  11.4km/h 15mph /  24.1km/h 78.8% 0.00in /  0mm 323 W/m2
14:04 66.7 °F /  19.3 °C 59.7 °F /  15.4 °C 29.50in /  998.9hPa NW 7.8mph /  12.6km/h 15mph /  24.1km/h 78% 0.00in /  0mm 220 W/m2
14:09 66.6 °F /  19.2 °C 59.6 °F /  15.3 °C 29.51in /  999.2hPa NW 5.6mph /  9km/h 13mph /  20.9km/h 78% 0.00in /  0mm 320 W/m2
14:14 67 °F /  19.4 °C 59.7 °F /  15.4 °C 29.51in /  999.2hPa WNW 8.2mph /  13.2km/h 14mph /  22.5km/h 77.3% 0.00in /  0mm 954 W/m2
14:19 68 °F /  20 °C 59.8 °F /  15.4 °C 29.51in /  999.2hPa WNW 8mph /  12.9km/h 13mph /  20.9km/h 75.1% 0.00in /  0mm 921 W/m2
14:24 67.9 °F /  19.9 °C 59.3 °F /  15.2 °C 29.52in /  999.5hPa WNW 7.6mph /  12.2km/h 15mph /  24.1km/h 74% 0.00in /  0mm 457 W/m2
14:29 67.7 °F /  19.8 °C 59.3 °F /  15.2 °C 29.52in /  999.5hPa NW 7.9mph /  12.7km/h 13mph /  20.9km/h 74.7% 0.00in /  0mm 381 W/m2
14:34 67.5 °F /  19.7 °C 59.7 °F /  15.4 °C 29.52in /  999.5hPa WNW 5.5mph /  8.9km/h 13mph /  20.9km/h 76.2% 0.00in /  0mm 967 W/m2
14:39 68.5 °F /  20.3 °C 60.5 °F /  15.8 °C 29.52in /  999.5hPa West 7.2mph /  11.6km/h 12mph /  19.3km/h 75.6% 0.00in /  0mm 944 W/m2
14:44 68.9 °F /  20.5 °C 60 °F /  15.6 °C 29.52in /  999.5hPa West 6mph /  9.7km/h 12mph /  19.3km/h 73.3% 0.00in /  0mm 360 W/m2
14:49 68.3 °F /  20.2 °C 59.7 °F /  15.4 °C 29.53in /  999.9hPa WNW 8.1mph /  13km/h 16mph /  25.7km/h 74% 0.00in /  0mm 408 W/m2
14:54 67.9 °F /  19.9 °C 59.6 °F /  15.3 °C 29.53in /  999.9hPa WNW 7.9mph /  12.7km/h 17mph /  27.4km/h 75% 0.00in /  0mm 373 W/m2
14:59 67 °F /  19.4 °C 59.7 °F /  15.4 °C 29.54in /  1000.2hPa WNW 11.1mph /  17.9km/h 17mph /  27.4km/h 77.6% 0.04in /  1.02mm 308 W/m2
15:04 65.7 °F /  18.7 °C 60.2 °F /  15.7 °C 29.54in /  1000.2hPa West 10.2mph /  16.4km/h 17mph /  27.4km/h 82.3% 0.04in /  1.02mm 789 W/m2
15:09 65.8 °F /  18.8 °C 60.9 °F /  16.1 °C 29.54in /  1000.2hPa West 12.1mph /  19.5km/h 20mph /  32.2km/h 84.3% 0.04in /  1.02mm 798 W/m2
15:14 65.7 °F /  18.7 °C 60.7 °F /  15.9 °C 29.55in /  1000.6hPa West 10.8mph /  17.4km/h 21mph /  33.8km/h 84% 0.04in /  1.02mm 798 W/m2
15:19 65.6 °F /  18.7 °C 60.5 °F /  15.8 °C 29.55in /  1000.6hPa West 11.8mph /  19km/h 21mph /  33.8km/h 83.6% 0.04in /  1.02mm 617 W/m2
15:24 64.9 °F /  18.3 °C 59.8 °F /  15.4 °C 29.56in /  1000.9hPa WNW 9.6mph /  15.4km/h 17mph /  27.4km/h 83.7% 0.04in /  1.02mm 279 W/m2
15:29 64.3 °F /  17.9 °C 59.4 °F /  15.2 °C 29.56in /  1000.9hPa WSW 11mph /  17.7km/h 20mph /  32.2km/h 84% 0.04in /  1.02mm 392 W/m2
15:34 64 °F /  17.8 °C 58.9 °F /  14.9 °C 29.57in /  1001.2hPa West 10.8mph /  17.4km/h 20mph /  32.2km/h 83.5% 0.04in /  1.02mm 334 W/m2
15:39 63.7 °F /  17.6 °C 58.8 °F /  14.9 °C 29.57in /  1001.2hPa West 8.5mph /  13.7km/h 18mph /  29km/h 84.1% 0.04in /  1.02mm 258 W/m2
15:44 63.7 °F /  17.6 °C 59 °F /  15 °C 29.57in /  1001.2hPa West 8.4mph /  13.5km/h 16mph /  25.7km/h 85% 0.04in /  1.02mm 306 W/m2
15:49 63.5 °F /  17.5 °C 58.9 °F /  14.9 °C 29.57in /  1001.2hPa West 12.2mph /  19.6km/h 23mph /  37km/h 85.2% 0.04in /  1.02mm 308 W/m2
15:54 63.5 °F /  17.5 °C 59 °F /  15 °C 29.57in /  1001.2hPa West 8.6mph /  13.8km/h 23mph /  37km/h 85.4% 0.04in /  1.02mm 274 W/m2
15:59 63.9 °F /  17.7 °C 59.5 °F /  15.3 °C 29.58in /  1001.6hPa West 6.9mph /  11.1km/h 14mph /  22.5km/h 86% 0.03in /  0.76mm 220 W/m2
16:04 63.9 °F /  17.7 °C 59.5 °F /  15.3 °C 29.58in /  1001.6hPa West 7.6mph /  12.2km/h 14mph /  22.5km/h 86% 0.00in /  0mm 241 W/m2
16:09 63.7 °F /  17.6 °C 59.4 °F /  15.2 °C 29.58in /  1001.6hPa West 10.4mph /  16.7km/h 16mph /  25.7km/h 86% 0.00in /  0mm 325 W/m2
16:14 63.6 °F /  17.6 °C 59.3 °F /  15.2 °C 29.59in /  1001.9hPa West 8.6mph /  13.8km/h 16mph /  25.7km/h 86% 0.00in /  0mm 325 W/m2
16:19 63.7 °F /  17.6 °C 59.3 °F /  15.2 °C 29.59in /  1001.9hPa West 8.8mph /  14.2km/h 17mph /  27.4km/h 85.7% 0.00in /  0mm 197 W/m2
16:24 63.9 °F /  17.7 °C 59.2 °F /  15.1 °C 29.59in /  1001.9hPa West 8.2mph /  13.2km/h 17mph /  27.4km/h 85% 0.00in /  0mm 188 W/m2
16:29 63.9 °F /  17.7 °C 59 °F /  15 °C 29.60in /  1002.3hPa West 10.7mph /  17.2km/h 20mph /  32.2km/h 84.3% 0.00in /  0mm 199 W/m2
16:34 64 °F /  17.8 °C 58.7 °F /  14.8 °C 29.60in /  1002.3hPa West 9.3mph /  15km/h 20mph /  32.2km/h 82.7% 0.00in /  0mm 209 W/m2
16:39 64.1 °F /  17.8 °C 58.3 °F /  14.6 °C 29.60in /  1002.3hPa West 12.5mph /  20.1km/h 21mph /  33.8km/h 81.3% 0.00in /  0mm 234 W/m2
16:44 64.1 °F /  17.8 °C 57.9 °F /  14.4 °C 29.60in /  1002.3hPa West 9.9mph /  15.9km/h 21mph /  33.8km/h 80.4% 0.00in /  0mm 250 W/m2
16:49 64.4 °F /  18 °C 57.9 °F /  14.4 °C 29.60in /  1002.3hPa West 8.1mph /  13km/h 15mph /  24.1km/h 79.5% 0.00in /  0mm 251 W/m2
16:54 64.6 °F /  18.1 °C 57.9 °F /  14.4 °C 29.60in /  1002.3hPa West 10.6mph /  17.1km/h 18mph /  29km/h 79% 0.00in /  0mm 255 W/m2
16:59 64.7 °F /  18.2 °C 58.1 °F /  14.5 °C 29.60in /  1002.3hPa West 7.3mph /  11.7km/h 18mph /  29km/h 79.4% 0.00in /  0mm 223 W/m2
17:04 64.6 °F /  18.1 °C 58.3 °F /  14.6 °C 29.60in /  1002.3hPa West 8mph /  12.9km/h 17mph /  27.4km/h 80% 0.00in /  0mm 162 W/m2
17:09 64.4 °F /  18 °C 58.2 °F /  14.6 °C 29.61in /  1002.6hPa West 6.7mph /  10.8km/h 12mph /  19.3km/h 80.4% 0.00in /  0mm 134 W/m2
17:14 64.2 °F /  17.9 °C 58.4 °F /  14.7 °C 29.61in /  1002.6hPa West 11.3mph /  18.2km/h 17mph /  27.4km/h 81.3% 0.00in /  0mm 105 W/m2
17:19 63.9 °F /  17.7 °C 58.6 °F /  14.8 °C 29.61in /  1002.6hPa West 9mph /  14.5km/h 17mph /  27.4km/h 82.6% 0.00in /  0mm 105 W/m2
17:24 63.6 °F /  17.6 °C 58.7 °F /  14.8 °C 29.62in /  1002.9hPa WNW 11mph /  17.7km/h 24mph /  38.6km/h 84.1% 0.00in /  0mm 77 W/m2
17:29 63.2 °F /  17.3 °C 58.8 °F /  14.9 °C 29.62in /  1002.9hPa West 8.1mph /  13km/h 17mph /  27.4km/h 85.3% 0.00in /  0mm 81 W/m2
17:34 63 °F /  17.2 °C 58.7 °F /  14.8 °C 29.62in /  1002.9hPa West 8mph /  12.9km/h 23mph /  37km/h 86.2% 0.00in /  0mm 123 W/m2
17:39 62.8 °F /  17.1 °C 58.8 °F /  14.9 °C 29.63in /  1003.3hPa West 9.3mph /  15km/h 16mph /  25.7km/h 87% 0.00in /  0mm 113 W/m2
17:44 62.5 °F /  16.9 °C 58.6 °F /  14.8 °C 29.63in /  1003.3hPa WNW 9.5mph /  15.3km/h 19mph /  30.6km/h 87% 0.00in /  0mm 135 W/m2
17:49 62.4 °F /  16.9 °C 58.5 °F /  14.7 °C 29.63in /  1003.3hPa WNW 8.7mph /  14km/h 19mph /  30.6km/h 87% 0.00in /  0mm 135 W/m2
17:54 62.3 °F /  16.8 °C 58.4 °F /  14.7 °C 29.64in /  1003.6hPa West 10.6mph /  17.1km/h 21mph /  33.8km/h 87% 0.00in /  0mm 142 W/m2
17:59 62.3 °F /  16.8 °C 58.4 °F /  14.7 °C 29.64in /  1003.6hPa West 7.8mph /  12.6km/h 16mph /  25.7km/h 87% 0.00in /  0mm 195 W/m2
18:04 62.4 °F /  16.9 °C 58.5 °F /  14.7 °C 29.64in /  1003.6hPa WNW 9.3mph /  15km/h 18mph /  29km/h 87% 0.00in /  0mm 220 W/m2
18:09 62.6 °F /  17 °C 58.3 °F /  14.6 °C 29.64in /  1003.6hPa West 7.9mph /  12.7km/h 17mph /  27.4km/h 86.1% 0.00in /  0mm 248 W/m2
18:14 63.1 °F /  17.3 °C 58.6 °F /  14.8 °C 29.64in /  1003.6hPa WNW 11.7mph /  18.8km/h 20mph /  32.2km/h 85.7% 0.00in /  0mm 299 W/m2
18:19 63.5 °F /  17.5 °C 58.8 °F /  14.9 °C 29.65in /  1003.9hPa West 9.9mph /  15.9km/h 20mph /  32.2km/h 84.7% 0.00in /  0mm 265 W/m2
18:24 63.8 °F /  17.7 °C 58.6 °F /  14.8 °C 29.65in /  1003.9hPa WNW 8.7mph /  14km/h 20mph /  32.2km/h 83.2% 0.00in /  0mm 241 W/m2
18:29 64 °F /  17.8 °C 58.7 °F /  14.8 °C 29.65in /  1003.9hPa West 11mph /  17.7km/h 17mph /  27.4km/h 82.5% 0.00in /  0mm 281 W/m2
18:34 64.2 °F /  17.9 °C 58.6 °F /  14.8 °C 29.65in /  1003.9hPa WNW 10.9mph /  17.5km/h 19mph /  30.6km/h 82% 0.00in /  0mm 281 W/m2
18:39 64.4 °F /  18 °C 58.8 °F /  14.9 °C 29.65in /  1003.9hPa West 9.2mph /  14.8km/h 19mph /  30.6km/h 82% 0.00in /  0mm 195 W/m2
18:44 64.2 °F /  17.9 °C 58.8 °F /  14.9 °C 29.65in /  1003.9hPa West 11.7mph /  18.8km/h 21mph /  33.8km/h 82.6% 0.00in /  0mm 213 W/m2
18:49 64.2 °F /  17.9 °C 59.2 °F /  15.1 °C 29.65in /  1003.9hPa West 9.6mph /  15.4km/h 21mph /  33.8km/h 83.5% 0.00in /  0mm 330 W/m2
18:54 64.2 °F /  17.9 °C 59.4 °F /  15.2 °C 29.65in /  1003.9hPa West 9.6mph /  15.4km/h 20mph /  32.2km/h 84% 0.00in /  0mm 278 W/m2
18:59 64.2 °F /  17.9 °C 59.4 °F /  15.2 °C 29.65in /  1003.9hPa West 8.3mph /  13.4km/h 19mph /  30.6km/h 84% 0.00in /  0mm 290 W/m2
19:04 64.1 °F /  17.8 °C 59.3 °F /  15.2 °C 29.66in /  1004.3hPa WNW 8.9mph /  14.3km/h 16mph /  25.7km/h 84% 0.00in /  0mm 116 W/m2
19:09 64 °F /  17.8 °C 59.1 °F /  15.1 °C 29.66in /  1004.3hPa West 12.9mph /  20.8km/h 22mph /  35.4km/h 84% 0.00in /  0mm 88 W/m2
19:14 63.8 °F /  17.7 °C 58.9 °F /  14.9 °C 29.66in /  1004.3hPa West 11.2mph /  18km/h 22mph /  35.4km/h 84% 0.00in /  0mm 74 W/m2
19:19 63.5 °F /  17.5 °C 58.6 °F /  14.8 °C 29.67in /  1004.6hPa West 11.4mph /  18.3km/h 20mph /  32.2km/h 84% 0.00in /  0mm 70 W/m2
19:24 63.3 °F /  17.4 °C 58.5 °F /  14.7 °C 29.67in /  1004.6hPa West 13.1mph /  21.1km/h 23mph /  37km/h 84% 0.00in /  0mm 79 W/m2
19:29 63.2 °F /  17.3 °C 58.4 °F /  14.7 °C 29.67in /  1004.6hPa West 10.6mph /  17.1km/h 21mph /  33.8km/h 84% 0.00in /  0mm 76 W/m2
19:34 63.1 °F /  17.3 °C 58.3 °F /  14.6 °C 29.67in /  1004.6hPa West 8.8mph /  14.2km/h 19mph /  30.6km/h 84% 0.00in /  0mm 69 W/m2
19:39 63 °F /  17.2 °C 58.1 °F /  14.5 °C 29.68in /  1005hPa WNW 8.5mph /  13.7km/h 18mph /  29km/h 84% 0.00in /  0mm 60 W/m2
19:44 63 °F /  17.2 °C 58.1 °F /  14.5 °C 29.68in /  1005hPa WNW 7.9mph /  12.7km/h 14mph /  22.5km/h 84% 0.00in /  0mm 51 W/m2
19:49 63 °F /  17.2 °C 58.1 °F /  14.5 °C 29.68in /  1005hPa West 9.5mph /  15.3km/h 18mph /  29km/h 84% 0.00in /  0mm 51 W/m2
19:54 62.8 °F /  17.1 °C 57.9 °F /  14.4 °C 29.68in /  1005hPa West 6.7mph /  10.8km/h 17mph /  27.4km/h 84% 0.00in /  0mm 51 W/m2
19:59 62.7 °F /  17.1 °C 57.8 °F /  14.3 °C 29.69in /  1005.3hPa West 10.2mph /  16.4km/h 18mph /  29km/h 84% 0.00in /  0mm 39 W/m2
20:04 62.6 °F /  17 °C 57.7 °F /  14.3 °C 29.69in /  1005.3hPa West 7.9mph /  12.7km/h 18mph /  29km/h 84% 0.00in /  0mm 26 W/m2
20:09 62.4 °F /  16.9 °C 57.8 °F /  14.3 °C 29.70in /  1005.6hPa West 8.5mph /  13.7km/h 16mph /  25.7km/h 84.4% 0.00in /  0mm 16 W/m2
20:14 62.4 °F /  16.9 °C 57.9 °F /  14.4 °C 29.70in /  1005.6hPa West 8.6mph /  13.8km/h 17mph /  27.4km/h 85% 0.00in /  0mm 9 W/m2
20:19 62.3 °F /  16.8 °C 57.8 °F /  14.3 °C 29.70in /  1005.6hPa West 7.7mph /  12.4km/h 19mph /  30.6km/h 85% 0.00in /  0mm 7 W/m2
20:24 62.1 °F /  16.7 °C 57.6 °F /  14.2 °C 29.70in /  1005.6hPa West 8.9mph /  14.3km/h 19mph /  30.6km/h 85.4% 0.00in /  0mm 5 W/m2
20:29 61.9 °F /  16.6 °C 57.6 °F /  14.2 °C 29.70in /  1005.6hPa West 8.6mph /  13.8km/h 15mph /  24.1km/h 86% 0.00in /  0mm 5 W/m2
20:34 61.9 °F /  16.6 °C 57.6 °F /  14.2 °C 29.71in /  1006hPa West 8mph /  12.9km/h 15mph /  24.1km/h 86% 0.00in /  0mm 5 W/m2
20:39 61.9 °F /  16.6 °C 57.6 °F /  14.2 °C 29.71in /  1006hPa West 7.8mph /  12.6km/h 13mph /  20.9km/h 86% 0.00in /  0mm 5 W/m2
20:44 61.9 °F /  16.6 °C 57.6 °F /  14.2 °C 29.71in /  1006hPa West 10mph /  16.1km/h 17mph /  27.4km/h 86% 0.00in /  0mm 0 W/m2
20:49 61.9 °F /  16.6 °C 57.6 °F /  14.2 °C 29.72in /  1006.3hPa West 9.8mph /  15.8km/h 18mph /  29km/h 86% 0.00in /  0mm 0 W/m2
20:54 61.7 °F /  16.5 °C 57.4 °F /  14.1 °C 29.72in /  1006.3hPa West 9mph /  14.5km/h 18mph /  29km/h 86% 0.00in /  0mm 0 W/m2
20:59 61.7 °F /  16.5 °C 57.2 °F /  14 °C 29.72in /  1006.3hPa WNW 9mph /  14.5km/h 15mph /  24.1km/h 85.1% 0.00in /  0mm 0 W/m2
21:04 61.7 °F /  16.5 °C 57.2 °F /  14 °C 29.72in /  1006.3hPa West 7.7mph /  12.4km/h 16mph /  25.7km/h 85% 0.00in /  0mm 0 W/m2
21:09 61.6 °F /  16.4 °C 57.1 °F /  13.9 °C 29.73in /  1006.7hPa West 9.2mph /  14.8km/h 17mph /  27.4km/h 85% 0.00in /  0mm 0 W/m2
21:14 61.5 °F /  16.4 °C 57 °F /  13.9 °C 29.73in /  1006.7hPa West 9mph /  14.5km/h 15mph /  24.1km/h 85% 0.00in /  0mm 0 W/m2
21:19 61.3 °F /  16.3 °C 57 °F /  13.9 °C 29.73in /  1006.7hPa West 7.6mph /  12.2km/h 17mph /  27.4km/h 85.8% 0.00in /  0mm 0 W/m2
21:24 61 °F /  16.1 °C 56.8 °F /  13.8 °C 29.74in /  1007hPa West 8.2mph /  13.2km/h 17mph /  27.4km/h 86.1% 0.01in /  0.25mm 0 W/m2
21:29 60.7 °F /  15.9 °C 56.7 °F /  13.7 °C 29.74in /  1007hPa West 8mph /  12.9km/h 17mph /  27.4km/h 87% 0.01in /  0.25mm 0 W/m2
21:34 60.5 °F /  15.8 °C 56.6 °F /  13.7 °C 29.74in /  1007hPa West 8.8mph /  14.2km/h 15mph /  24.1km/h 87% 0.01in /  0.25mm 0 W/m2
21:39 60.4 °F /  15.8 °C 56.8 °F /  13.8 °C 29.74in /  1007hPa WNW 7.4mph /  11.9km/h 16mph /  25.7km/h 87.9% 0.01in /  0.25mm 0 W/m2
21:44 60.4 °F /  15.8 °C 56.8 °F /  13.8 °C 29.75in /  1007.3hPa West 7.4mph /  11.9km/h 16mph /  25.7km/h 88% 0.01in /  0.25mm 0 W/m2
21:49 60.3 °F /  15.7 °C 56.7 °F /  13.7 °C 29.75in /  1007.3hPa WNW 9.6mph /  15.4km/h 18mph /  29km/h 88% 0.01in /  0.25mm 0 W/m2
21:54 60 °F /  15.6 °C 56.4 °F /  13.6 °C 29.75in /  1007.3hPa WNW 10mph /  16.1km/h 18mph /  29km/h 88% 0.02in /  0.51mm 0 W/m2
21:59 59.6 °F /  15.3 °C 56.3 °F /  13.5 °C 29.76in /  1007.7hPa WNW 7.4mph /  11.9km/h 17mph /  27.4km/h 88.6% 0.02in /  0.51mm 0 W/m2
22:04 59.4 °F /  15.2 °C 56.2 °F /  13.4 °C 29.76in /  1007.7hPa WNW 7.6mph /  12.2km/h 14mph /  22.5km/h 89% 0.03in /  0.76mm 0 W/m2
22:09 59.3 °F /  15.2 °C 56.2 °F /  13.4 °C 29.76in /  1007.7hPa WNW 8.2mph /  13.2km/h 14mph /  22.5km/h 89.5% 0.04in /  1.02mm 0 W/m2
22:14 59 °F /  15 °C 56.1 °F /  13.4 °C 29.77in /  1008hPa WNW 8.7mph /  14km/h 16mph /  25.7km/h 90% 0.04in /  1.02mm 0 W/m2
22:19 58.9 °F /  14.9 °C 56 °F /  13.3 °C 29.77in /  1008hPa WNW 7.2mph /  11.6km/h 15mph /  24.1km/h 90% 0.04in /  1.02mm 0 W/m2
22:24 58.7 °F /  14.8 °C 56 °F /  13.3 °C 29.77in /  1008hPa WNW 10.3mph /  16.6km/h 16mph /  25.7km/h 90.8% 0.04in /  1.02mm 0 W/m2
22:29 58.6 °F /  14.8 °C 55.9 °F /  13.3 °C 29.77in /  1008hPa WNW 6.3mph /  10.1km/h 16mph /  25.7km/h 91% 0.04in /  1.02mm 0 W/m2
22:34 58.6 °F /  14.8 °C 55.9 °F /  13.3 °C 29.77in /  1008hPa WNW 5.6mph /  9km/h 12mph /  19.3km/h 91% 0.04in /  1.02mm 0 W/m2
22:39 58.5 °F /  14.7 °C 55.8 °F /  13.2 °C 29.77in /  1008hPa WNW 6.3mph /  10.1km/h 12mph /  19.3km/h 91% 0.04in /  1.02mm 0 W/m2
22:44 58.5 °F /  14.7 °C 55.8 °F /  13.2 °C 29.77in /  1008hPa West 7.1mph /  11.4km/h 15mph /  24.1km/h 91% 0.04in /  1.02mm 0 W/m2
22:49 58.6 °F /  14.8 °C 56 °F /  13.3 °C 29.78in /  1008.4hPa WNW 6.8mph /  10.9km/h 15mph /  24.1km/h 91.3% 0.04in /  1.02mm 0 W/m2
22:54 58.6 °F /  14.8 °C 56.3 °F /  13.5 °C 29.78in /  1008.4hPa WNW 7mph /  11.3km/h 12mph /  19.3km/h 92% 0.04in /  1.02mm 0 W/m2
22:59 58.6 °F /  14.8 °C 56.3 °F /  13.5 °C 29.78in /  1008.4hPa WNW 7.1mph /  11.4km/h 13mph /  20.9km/h 92% 0.03in /  0.76mm 0 W/m2
23:04 58.7 °F /  14.8 °C 56.4 °F /  13.6 °C 29.78in /  1008.4hPa West 7.5mph /  12.1km/h 13mph /  20.9km/h 92% 0.02in /  0.51mm 0 W/m2
23:09 58.8 °F /  14.9 °C 56.5 °F /  13.6 °C 29.78in /  1008.4hPa WNW 5.6mph /  9km/h 13mph /  20.9km/h 92% 0.02in /  0.51mm 0 W/m2
23:14 58.8 °F /  14.9 °C 56.5 °F /  13.6 °C 29.78in /  1008.4hPa WNW 5.8mph /  9.3km/h 13mph /  20.9km/h 92% 0.01in /  0.25mm 0 W/m2
23:19 58.9 °F /  14.9 °C 56.6 °F /  13.7 °C 29.78in /  1008.4hPa WNW 5.7mph /  9.2km/h 10mph /  16.1km/h 92% 0.02in /  0.51mm 0 W/m2
23:24 59 °F /  15 °C 56.7 °F /  13.7 °C 29.78in /  1008.4hPa WNW 7.7mph /  12.4km/h 14mph /  22.5km/h 92% 0.02in /  0.51mm 0 W/m2
23:29 59.1 °F /  15.1 °C 56.7 °F /  13.7 °C 29.78in /  1008.4hPa WNW 5.2mph /  8.4km/h 11mph /  17.7km/h 92% 0.02in /  0.51mm 0 W/m2
23:34 59.2 °F /  15.1 °C 56.8 °F /  13.8 °C 29.78in /  1008.4hPa West 5mph /  8km/h 10mph /  16.1km/h 92% 0.01in /  0.25mm 0 W/m2
23:39 59.4 °F /  15.2 °C 57 °F /  13.9 °C 29.78in /  1008.4hPa WNW 5.8mph /  9.3km/h 10mph /  16.1km/h 92% 0.01in /  0.25mm 0 W/m2
23:44 59.4 °F /  15.2 °C 57 °F /  13.9 °C 29.78in /  1008.4hPa WNW 5.1mph /  8.2km/h 9mph /  14.5km/h 92% 0.02in /  0.51mm 0 W/m2
23:49 59.4 °F /  15.2 °C 57 °F /  13.9 °C 29.78in /  1008.4hPa WNW 4.6mph /  7.4km/h 8mph /  12.9km/h 92% 0.02in /  0.51mm 0 W/m2
23:54 59.4 °F /  15.2 °C 57 °F /  13.9 °C 29.78in /  1008.4hPa WNW 4.2mph /  6.8km/h 8mph /  12.9km/h 92% 0.02in /  0.51mm 0 W/m2
23:59 59.4 °F /  15.2 °C 57 °F /  13.9 °C 29.78in /  1008.4hPa WNW 4.9mph /  7.9km/h 9mph /  14.5km/h 92% 0.02in /  0.51mm 0 W/m2
Bath Spa Weather
Compliments of Weather Underground - 2 mb